sensor_id;sensor_type;location;lat;lon;timestamp;temperature;humidity
41168;DHT22;26906;45.658;9.272;2023-11-19T06:20:04;7.50;99.90
41168;DHT22;26906;45.658;9.272;2023-11-19T06:22:31;7.60;99.90
41168;DHT22;26906;45.658;9.272;2023-11-19T06:24:57;7.50;99.90
41168;DHT22;26906;45.658;9.272;2023-11-19T06:27:25;7.50;99.90
41168;DHT22;26906;45.658;9.272;2023-11-19T06:29:51;7.40;99.90
41168;DHT22;26906;45.658;9.272;2023-11-19T06:32:16;7.40;99.90
41168;DHT22;26906;45.658;9.272;2023-11-19T06:34:42;7.40;99.90
41168;DHT22;26906;45.658;9.272;2023-11-19T06:37:08;7.40;99.90
41168;DHT22;26906;45.658;9.272;2023-11-19T06:39:35;7.50;99.90
41168;DHT22;26906;45.658;9.272;2023-11-19T06:42:02;7.50;99.90
41168;DHT22;26906;45.658;9.272;2023-11-19T06:44:28;7.50;99.90
41168;DHT22;26906;45.658;9.272;2023-11-19T06:46:54;7.60;99.90
41168;DHT22;26906;45.658;9.272;2023-11-19T06:49:20;7.50;99.90
41168;DHT22;26906;45.658;9.272;2023-11-19T06:51:45;7.60;99.90
41168;DHT22;26906;45.658;9.272;2023-11-19T06:54:11;7.60;99.90
41168;DHT22;26906;45.658;9.272;2023-11-19T06:56:37;7.60;99.90
41168;DHT22;26906;45.658;9.272;2023-11-19T06:59:03;7.60;99.90
41168;DHT22;26906;45.658;9.272;2023-11-19T07:01:34;7.60;99.90
41168;DHT22;26906;45.658;9.272;2023-11-19T07:04:00;7.70;99.90
41168;DHT22;26906;45.658;9.272;2023-11-19T07:06:33;7.80;99.90
41168;DHT22;26906;45.658;9.272;2023-11-19T07:08:59;7.80;99.90
41168;DHT22;26906;45.658;9.272;2023-11-19T07:11:24;7.80;99.90
41168;DHT22;26906;45.658;9.272;2023-11-19T07:13:50;7.90;99.90
41168;DHT22;26906;45.658;9.272;2023-11-19T07:16:16;7.90;99.90
41168;DHT22;26906;45.658;9.272;2023-11-19T07:18:41;8.10;99.90
41168;DHT22;26906;45.658;9.272;2023-11-19T07:21:09;8.10;99.90
41168;DHT22;26906;45.658;9.272;2023-11-19T07:23:36;8.10;99.90
41168;DHT22;26906;45.658;9.272;2023-11-19T07:26:04;8.30;99.90
41168;DHT22;26906;45.658;9.272;2023-11-19T07:28:29;8.30;99.90
41168;DHT22;26906;45.658;9.272;2023-11-19T07:30:56;8.30;99.90
41168;DHT22;26906;45.658;9.272;2023-11-19T07:33:22;8.40;99.90
41168;DHT22;26906;45.658;9.272;2023-11-19T07:35:47;8.50;99.90
41168;DHT22;26906;45.658;9.272;2023-11-19T07:38:14;8.70;99.90
41168;DHT22;26906;45.658;9.272;2023-11-19T07:40:40;8.80;99.90
41168;DHT22;26906;45.658;9.272;2023-11-19T07:43:06;8.90;99.90
41168;DHT22;26906;45.658;9.272;2023-11-19T07:45:34;9.00;99.90
41168;DHT22;26906;45.658;9.272;2023-11-19T07:48:00;9.20;99.90
41168;DHT22;26906;45.658;9.272;2023-11-19T07:50:26;9.40;99.90
41168;DHT22;26906;45.658;9.272;2023-11-19T07:52:53;9.50;99.90
41168;DHT22;26906;45.658;9.272;2023-11-19T07:55:18;9.70;99.90
41168;DHT22;26906;45.658;9.272;2023-11-19T07:57:44;9.80;99.90
41168;DHT22;26906;45.658;9.272;2023-11-19T08:00:10;10.00;99.90
41168;DHT22;26906;45.658;9.272;2023-11-19T08:02:39;10.10;99.90
41168;DHT22;26906;45.658;9.272;2023-11-19T08:05:05;10.40;99.90
41168;DHT22;26906;45.658;9.272;2023-11-19T08:07:31;10.50;99.90
41168;DHT22;26906;45.658;9.272;2023-11-19T08:09:57;10.70;99.90
41168;DHT22;26906;45.658;9.272;2023-11-19T08:12:22;10.80;99.90
41168;DHT22;26906;45.658;9.272;2023-11-19T08:14:48;10.90;99.90
41168;DHT22;26906;45.658;9.272;2023-11-19T08:17:14;11.00;99.90
41168;DHT22;26906;45.658;9.272;2023-11-19T08:19:41;11.20;99.90
41168;DHT22;26906;45.658;9.272;2023-11-19T08:22:07;11.20;99.90
41168;DHT22;26906;45.658;9.272;2023-11-19T08:24:32;11.40;99.90
41168;DHT22;26906;45.658;9.272;2023-11-19T08:26:58;11.60;99.90
41168;DHT22;26906;45.658;9.272;2023-11-19T08:29:24;11.80;99.90
41168;DHT22;26906;45.658;9.272;2023-11-19T08:31:50;12.00;99.90
41168;DHT22;26906;45.658;9.272;2023-11-19T08:34:15;12.10;99.90
41168;DHT22;26906;45.658;9.272;2023-11-19T08:36:41;12.30;99.90
41168;DHT22;26906;45.658;9.272;2023-11-19T08:39:07;12.50;99.90
41168;DHT22;26906;45.658;9.272;2023-11-19T08:41:34;12.50;99.90
41168;DHT22;26906;45.658;9.272;2023-11-19T08:44:00;12.60;99.90
41168;DHT22;26906;45.658;9.272;2023-11-19T08:46:25;12.70;99.90
41168;DHT22;26906;45.658;9.272;2023-11-19T08:48:51;12.80;99.90
41168;DHT22;26906;45.658;9.272;2023-11-19T08:51:17;13.00;99.90
41168;DHT22;26906;45.658;9.272;2023-11-19T08:53:43;13.00;99.90
41168;DHT22;26906;45.658;9.272;2023-11-19T08:56:08;13.20;99.90
41168;DHT22;26906;45.658;9.272;2023-11-19T08:58:34;13.30;99.90
41168;DHT22;26906;45.658;9.272;2023-11-19T09:01:00;13.40;99.90
41168;DHT22;26906;45.658;9.272;2023-11-19T09:03:26;13.60;99.90
41168;DHT22;26906;45.658;9.272;2023-11-19T09:05:55;13.70;99.90
41168;DHT22;26906;45.658;9.272;2023-11-19T09:08:21;13.70;99.90
41168;DHT22;26906;45.658;9.272;2023-11-19T09:10:46;13.60;99.90
41168;DHT22;26906;45.658;9.272;2023-11-19T09:13:12;13.50;99.90
41168;DHT22;26906;45.658;9.272;2023-11-19T09:15:38;13.50;99.90
41168;DHT22;26906;45.658;9.272;2023-11-19T09:18:03;13.60;99.90
41168;DHT22;26906;45.658;9.272;2023-11-19T09:20:30;13.80;99.90
41168;DHT22;26906;45.658;9.272;2023-11-19T09:23:03;13.80;99.90
41168;DHT22;26906;45.658;9.272;2023-11-19T09:25:28;14.10;99.90
41168;DHT22;26906;45.658;9.272;2023-11-19T09:27:54;14.10;99.90
41168;DHT22;26906;45.658;9.272;2023-11-19T09:30:20;14.20;99.90
41168;DHT22;26906;45.658;9.272;2023-11-19T09:32:46;14.20;99.90
41168;DHT22;26906;45.658;9.272;2023-11-19T09:35:11;14.30;99.90
41168;DHT22;26906;45.658;9.272;2023-11-19T09:37:39;14.30;99.90
41168;DHT22;26906;45.658;9.272;2023-11-19T09:40:07;14.20;99.90
41168;DHT22;26906;45.658;9.272;2023-11-19T09:42:43;14.30;99.90
41168;DHT22;26906;45.658;9.272;2023-11-19T09:45:14;14.30;99.90
41168;DHT22;26906;45.658;9.272;2023-11-19T09:47:44;14.30;99.90
41168;DHT22;26906;45.658;9.272;2023-11-19T09:50:17;14.30;99.90
41168;DHT22;26906;45.658;9.272;2023-11-19T09:52:47;14.30;99.90
41168;DHT22;26906;45.658;9.272;2023-11-19T09:55:13;14.40;99.90
41168;DHT22;26906;45.658;9.272;2023-11-19T09:57:39;14.40;99.90
41168;DHT22;26906;45.658;9.272;2023-11-19T10:00:10;14.40;99.90
41168;DHT22;26906;45.658;9.272;2023-11-19T10:02:36;14.40;99.90
41168;DHT22;26906;45.658;9.272;2023-11-19T10:05:05;14.40;99.90
41168;DHT22;26906;45.658;9.272;2023-11-19T10:07:32;14.40;99.90
41168;DHT22;26906;45.658;9.272;2023-11-19T10:10:02;14.50;99.90
41168;DHT22;26906;45.658;9.272;2023-11-19T10:12:30;14.40;99.90
41168;DHT22;26906;45.658;9.272;2023-11-19T10:14:57;14.50;99.90
41168;DHT22;26906;45.658;9.272;2023-11-19T10:17:33;14.60;99.90
41168;DHT22;26906;45.658;9.272;2023-11-19T10:20:00;14.60;99.90
41168;DHT22;26906;45.658;9.272;2023-11-19T10:22:27;14.60;99.90
41168;DHT22;26906;45.658;9.272;2023-11-19T10:24:53;14.60;99.90
41168;DHT22;26906;45.658;9.272;2023-11-19T10:27:18;14.60;99.90
41168;DHT22;26906;45.658;9.272;2023-11-19T10:29:47;14.60;99.90
41168;DHT22;26906;45.658;9.272;2023-11-19T10:32:14;14.60;99.90
41168;DHT22;26906;45.658;9.272;2023-11-19T10:34:43;14.60;99.90
41168;DHT22;26906;45.658;9.272;2023-11-19T10:37:27;14.60;99.90
41168;DHT22;26906;45.658;9.272;2023-11-19T10:39:57;14.60;99.90
41168;DHT22;26906;45.658;9.272;2023-11-19T10:42:24;14.70;99.90
41168;DHT22;26906;45.658;9.272;2023-11-19T10:44:52;14.70;99.90
41168;DHT22;26906;45.658;9.272;2023-11-19T10:47:19;14.80;99.90
41168;DHT22;26906;45.658;9.272;2023-11-19T10:49:48;14.90;99.90
41168;DHT22;26906;45.658;9.272;2023-11-19T10:52:18;15.00;99.90
41168;DHT22;26906;45.658;9.272;2023-11-19T10:54:50;15.00;99.90
41168;DHT22;26906;45.658;9.272;2023-11-19T10:57:21;15.10;99.90
41168;DHT22;26906;45.658;9.272;2023-11-19T10:59:52;15.20;99.90
41168;DHT22;26906;45.658;9.272;2023-11-19T11:02:22;15.30;99.90
41168;DHT22;26906;45.658;9.272;2023-11-19T11:04:50;15.40;99.90
41168;DHT22;26906;45.658;9.272;2023-11-19T11:07:18;15.50;99.90
41168;DHT22;26906;45.658;9.272;2023-11-19T11:09:45;15.50;99.90
41168;DHT22;26906;45.658;9.272;2023-11-19T11:12:15;15.60;99.90
41168;DHT22;26906;45.658;9.272;2023-11-19T11:14:44;15.70;99.90
41168;DHT22;26906;45.658;9.272;2023-11-19T11:17:12;15.80;99.90
41168;DHT22;26906;45.658;9.272;2023-11-19T11:19:41;15.90;99.90
41168;DHT22;26906;45.658;9.272;2023-11-19T11:22:09;16.20;99.90
41168;DHT22;26906;45.658;9.272;2023-11-19T11:25:06;16.30;99.90
41168;DHT22;26906;45.658;9.272;2023-11-19T11:30:35;16.20;99.90
41168;DHT22;26906;45.658;9.272;2023-11-19T11:35:53;16.60;99.90
41168;DHT22;26906;45.658;9.272;2023-11-19T11:38:23;16.70;99.90
41168;DHT22;26906;45.658;9.272;2023-11-19T11:41:14;16.80;99.90
41168;DHT22;26906;45.658;9.272;2023-11-19T11:49:05;17.10;99.90
41168;DHT22;26906;45.658;9.272;2023-11-19T12:02:09;17.60;99.90
41168;DHT22;26906;45.658;9.272;2023-11-19T12:04:35;17.60;99.90
41168;DHT22;26906;45.658;9.272;2023-11-19T12:07:16;17.60;99.90
41168;DHT22;26906;45.658;9.272;2023-11-19T12:09:52;17.70;99.90
41168;DHT22;26906;45.658;9.272;2023-11-19T12:12:25;17.70;99.90
41168;DHT22;26906;45.658;9.272;2023-11-19T12:20:02;17.80;99.90
41168;DHT22;26906;45.658;9.272;2023-11-19T12:22:30;17.80;99.90
41168;DHT22;26906;45.658;9.272;2023-11-19T12:24:56;17.70;99.90
41168;DHT22;26906;45.658;9.272;2023-11-19T12:27:22;17.70;99.90
41168;DHT22;26906;45.658;9.272;2023-11-19T12:29:48;17.60;99.90
41168;DHT22;26906;45.658;9.272;2023-11-19T12:32:14;17.50;99.90
41168;DHT22;26906;45.658;9.272;2023-11-19T12:34:40;17.50;99.90
41168;DHT22;26906;45.658;9.272;2023-11-19T12:37:06;17.40;99.90
41168;DHT22;26906;45.658;9.272;2023-11-19T12:39:32;17.40;99.90
41168;DHT22;26906;45.658;9.272;2023-11-19T12:41:58;17.40;99.90
41168;DHT22;26906;45.658;9.272;2023-11-19T12:44:27;17.50;99.90
41168;DHT22;26906;45.658;9.272;2023-11-19T12:47:05;17.50;99.90
41168;DHT22;26906;45.658;9.272;2023-11-19T12:49:35;17.60;99.90
41168;DHT22;26906;45.658;9.272;2023-11-19T12:52:01;17.60;99.90
41168;DHT22;26906;45.658;9.272;2023-11-19T12:54:36;17.70;99.90
41168;DHT22;26906;45.658;9.272;2023-11-19T12:57:03;17.70;99.90
41168;DHT22;26906;45.658;9.272;2023-11-19T12:59:30;17.60;99.90
41168;DHT22;26906;45.658;9.272;2023-11-19T13:01:59;17.60;99.90
41168;DHT22;26906;45.658;9.272;2023-11-19T13:04:29;17.50;99.90
41168;DHT22;26906;45.658;9.272;2023-11-19T13:07:01;17.60;99.90
41168;DHT22;26906;45.658;9.272;2023-11-19T13:09:29;17.70;99.90
41168;DHT22;26906;45.658;9.272;2023-11-19T13:11:56;17.80;99.90
41168;DHT22;26906;45.658;9.272;2023-11-19T13:14:22;17.70;99.90
41168;DHT22;26906;45.658;9.272;2023-11-19T13:16:49;17.70;99.90
41168;DHT22;26906;45.658;9.272;2023-11-19T13:19:15;17.60;99.90
41168;DHT22;26906;45.658;9.272;2023-11-19T13:21:45;17.60;99.90
41168;DHT22;26906;45.658;9.272;2023-11-19T13:24:13;17.60;99.90
41168;DHT22;26906;45.658;9.272;2023-11-19T13:26:39;17.50;99.90
41168;DHT22;26906;45.658;9.272;2023-11-19T13:29:05;17.50;99.90
41168;DHT22;26906;45.658;9.272;2023-11-19T13:31:30;17.50;99.90
41168;DHT22;26906;45.658;9.272;2023-11-19T13:33:56;17.50;99.90
41168;DHT22;26906;45.658;9.272;2023-11-19T13:36:24;17.60;99.90
41168;DHT22;26906;45.658;9.272;2023-11-19T13:38:50;17.50;99.90
41168;DHT22;26906;45.658;9.272;2023-11-19T13:41:16;17.50;99.90
41168;DHT22;26906;45.658;9.272;2023-11-19T13:43:42;17.50;99.90
41168;DHT22;26906;45.658;9.272;2023-11-19T13:46:08;17.50;99.90
41168;DHT22;26906;45.658;9.272;2023-11-19T13:48:35;17.30;99.90
41168;DHT22;26906;45.658;9.272;2023-11-19T13:51:01;17.30;99.90
41168;DHT22;26906;45.658;9.272;2023-11-19T13:53:26;17.20;99.90
41168;DHT22;26906;45.658;9.272;2023-11-19T13:55:52;17.20;99.90
41168;DHT22;26906;45.658;9.272;2023-11-19T13:58:18;17.20;99.90
41168;DHT22;26906;45.658;9.272;2023-11-19T14:00:44;17.20;99.90
41168;DHT22;26906;45.658;9.272;2023-11-19T14:03:10;17.20;99.90
41168;DHT22;26906;45.658;9.272;2023-11-19T14:05:39;17.20;99.90
41168;DHT22;26906;45.658;9.272;2023-11-19T14:08:07;17.20;99.90
41168;DHT22;26906;45.658;9.272;2023-11-19T14:10:39;17.20;99.90
41168;DHT22;26906;45.658;9.272;2023-11-19T14:13:06;17.30;99.90
41168;DHT22;26906;45.658;9.272;2023-11-19T14:15:32;17.20;99.90
41168;DHT22;26906;45.658;9.272;2023-11-19T14:17:58;17.20;99.90
41168;DHT22;26906;45.658;9.272;2023-11-19T14:20:23;17.10;99.90
41168;DHT22;26906;45.658;9.272;2023-11-19T14:22:49;17.00;99.90
41168;DHT22;26906;45.658;9.272;2023-11-19T14:25:17;16.90;99.90
41168;DHT22;26906;45.658;9.272;2023-11-19T14:27:43;16.90;99.90
41168;DHT22;26906;45.658;9.272;2023-11-19T14:30:11;16.90;99.90
41168;DHT22;26906;45.658;9.272;2023-11-19T14:32:38;16.70;99.90
41168;DHT22;26906;45.658;9.272;2023-11-19T14:35:05;16.70;99.90
41168;DHT22;26906;45.658;9.272;2023-11-19T14:37:30;16.70;99.90
41168;DHT22;26906;45.658;9.272;2023-11-19T14:39:56;16.70;99.90
41168;DHT22;26906;45.658;9.272;2023-11-19T14:42:23;16.60;99.90
41168;DHT22;26906;45.658;9.272;2023-11-19T14:44:53;16.50;99.90
41168;DHT22;26906;45.658;9.272;2023-11-19T14:47:20;16.50;99.90
41168;DHT22;26906;45.658;9.272;2023-11-19T14:49:45;16.50;99.90
41168;DHT22;26906;45.658;9.272;2023-11-19T14:52:11;16.50;99.90
41168;DHT22;26906;45.658;9.272;2023-11-19T14:54:37;16.50;99.90
41168;DHT22;26906;45.658;9.272;2023-11-19T14:57:04;16.30;99.90
41168;DHT22;26906;45.658;9.272;2023-11-19T14:59:30;16.20;99.90
41168;DHT22;26906;45.658;9.272;2023-11-19T15:01:55;16.10;99.90
41168;DHT22;26906;45.658;9.272;2023-11-19T15:04:21;16.00;99.90
41168;DHT22;26906;45.658;9.272;2023-11-19T15:06:47;16.00;99.90
41168;DHT22;26906;45.658;9.272;2023-11-19T15:09:12;16.00;99.90
41168;DHT22;26906;45.658;9.272;2023-11-19T15:11:43;15.90;99.90
41168;DHT22;26906;45.658;9.272;2023-11-19T15:14:14;15.90;99.90
41168;DHT22;26906;45.658;9.272;2023-11-19T15:16:45;15.80;99.90
41168;DHT22;26906;45.658;9.272;2023-11-19T15:19:12;15.70;99.90
41168;DHT22;26906;45.658;9.272;2023-11-19T15:21:41;15.70;99.90
41168;DHT22;26906;45.658;9.272;2023-11-19T15:24:08;15.60;99.90
41168;DHT22;26906;45.658;9.272;2023-11-19T15:26:34;15.60;99.90
41168;DHT22;26906;45.658;9.272;2023-11-19T15:29:01;15.50;99.90
41168;DHT22;26906;45.658;9.272;2023-11-19T15:31:27;15.40;99.90
41168;DHT22;26906;45.658;9.272;2023-11-19T15:33:52;15.30;99.90
41168;DHT22;26906;45.658;9.272;2023-11-19T15:36:18;15.20;99.90
41168;DHT22;26906;45.658;9.272;2023-11-19T15:38:44;15.10;99.90
41168;DHT22;26906;45.658;9.272;2023-11-19T15:41:10;15.10;99.90
41168;DHT22;26906;45.658;9.272;2023-11-19T15:43:36;15.10;99.90
41168;DHT22;26906;45.658;9.272;2023-11-19T15:46:06;15.00;99.90
41168;DHT22;26906;45.658;9.272;2023-11-19T15:48:33;14.90;99.90
41168;DHT22;26906;45.658;9.272;2023-11-19T15:50:59;14.80;99.90
41168;DHT22;26906;45.658;9.272;2023-11-19T15:53:25;14.80;99.90
41168;DHT22;26906;45.658;9.272;2023-11-19T15:55:51;14.70;99.90
41168;DHT22;26906;45.658;9.272;2023-11-19T15:58:19;14.60;99.90
41168;DHT22;26906;45.658;9.272;2023-11-19T16:00:46;14.50;99.90
41168;DHT22;26906;45.658;9.272;2023-11-19T16:03:13;14.40;99.90
41168;DHT22;26906;45.658;9.272;2023-11-19T16:05:39;14.40;99.90
41168;DHT22;26906;45.658;9.272;2023-11-19T16:08:04;14.30;99.90
41168;DHT22;26906;45.658;9.272;2023-11-19T16:10:31;14.30;99.90
41168;DHT22;26906;45.658;9.272;2023-11-19T16:12:57;14.20;99.90
41168;DHT22;26906;45.658;9.272;2023-11-19T16:15:23;14.10;99.90
41168;DHT22;26906;45.658;9.272;2023-11-19T16:17:49;14.00;99.90
41168;DHT22;26906;45.658;9.272;2023-11-19T16:20:15;13.90;99.90
41168;DHT22;26906;45.658;9.272;2023-11-19T16:22:40;14.00;99.90
41168;DHT22;26906;45.658;9.272;2023-11-19T16:25:10;13.80;99.90
41168;DHT22;26906;45.658;9.272;2023-11-19T16:27:38;13.70;99.90
41168;DHT22;26906;45.658;9.272;2023-11-19T16:30:06;13.60;99.90
41168;DHT22;26906;45.658;9.272;2023-11-19T16:32:31;13.60;99.90
41168;DHT22;26906;45.658;9.272;2023-11-19T16:34:57;13.50;99.90
41168;DHT22;26906;45.658;9.272;2023-11-19T16:37:23;13.30;99.90
41168;DHT22;26906;45.658;9.272;2023-11-19T16:39:48;13.30;99.90
41168;DHT22;26906;45.658;9.272;2023-11-19T16:42:14;13.10;99.90
41168;DHT22;26906;45.658;9.272;2023-11-19T16:44:40;13.10;99.90
41168;DHT22;26906;45.658;9.272;2023-11-19T16:47:06;13.00;99.90
41168;DHT22;26906;45.658;9.272;2023-11-19T16:49:33;12.90;99.90
41168;DHT22;26906;45.658;9.272;2023-11-19T16:51:59;12.90;99.90
41168;DHT22;26906;45.658;9.272;2023-11-19T16:54:25;12.90;99.90
41168;DHT22;26906;45.658;9.272;2023-11-19T16:56:50;12.80;99.90
41168;DHT22;26906;45.658;9.272;2023-11-19T16:59:17;12.80;99.90
41168;DHT22;26906;45.658;9.272;2023-11-19T17:01:43;12.70;99.90
41168;DHT22;26906;45.658;9.272;2023-11-19T17:04:09;12.70;99.90
41168;DHT22;26906;45.658;9.272;2023-11-19T17:06:38;12.60;99.90
41168;DHT22;26906;45.658;9.272;2023-11-19T17:09:04;12.60;99.90
41168;DHT22;26906;45.658;9.272;2023-11-19T17:11:29;12.50;99.90
41168;DHT22;26906;45.658;9.272;2023-11-19T17:13:55;12.40;99.90
41168;DHT22;26906;45.658;9.272;2023-11-19T17:16:21;12.40;99.90
41168;DHT22;26906;45.658;9.272;2023-11-19T17:18:47;12.40;99.90
41168;DHT22;26906;45.658;9.272;2023-11-19T17:21:13;12.40;99.90
41168;DHT22;26906;45.658;9.272;2023-11-19T17:23:39;12.40;99.90
41168;DHT22;26906;45.658;9.272;2023-11-19T17:26:06;12.30;99.90
41168;DHT22;26906;45.658;9.272;2023-11-19T17:28:31;12.30;99.90
41168;DHT22;26906;45.658;9.272;2023-11-19T17:31:01;12.20;99.90
41168;DHT22;26906;45.658;9.272;2023-11-19T17:33:29;12.20;99.90
41168;DHT22;26906;45.658;9.272;2023-11-19T17:35:54;12.30;99.90
41168;DHT22;26906;45.658;9.272;2023-11-19T17:38:21;12.10;99.90
41168;DHT22;26906;45.658;9.272;2023-11-19T17:40:49;12.10;99.90
41168;DHT22;26906;45.658;9.272;2023-11-19T17:43:17;12.00;99.90
41168;DHT22;26906;45.658;9.272;2023-11-19T17:45:45;12.00;99.90
41168;DHT22;26906;45.658;9.272;2023-11-19T17:48:14;11.90;99.90
41168;DHT22;26906;45.658;9.272;2023-11-19T17:50:39;11.80;99.90
41168;DHT22;26906;45.658;9.272;2023-11-19T17:53:05;11.80;99.90
41168;DHT22;26906;45.658;9.272;2023-11-19T17:55:31;12.00;99.90
41168;DHT22;26906;45.658;9.272;2023-11-19T17:57:56;12.00;99.90
41168;DHT22;26906;45.658;9.272;2023-11-19T18:00:22;12.00;99.90
41168;DHT22;26906;45.658;9.272;2023-11-19T18:02:48;11.90;99.90
41168;DHT22;26906;45.658;9.272;2023-11-19T18:05:15;11.80;99.90
41168;DHT22;26906;45.658;9.272;2023-11-19T18:07:41;11.70;99.90
41168;DHT22;26906;45.658;9.272;2023-11-19T18:10:08;11.60;99.90
41168;DHT22;26906;45.658;9.272;2023-11-19T18:12:34;11.60;99.90
41168;DHT22;26906;45.658;9.272;2023-11-19T18:15:08;11.50;99.90
41168;DHT22;26906;45.658;9.272;2023-11-19T18:17:35;11.50;99.90
41168;DHT22;26906;45.658;9.272;2023-11-19T18:20:08;11.40;99.90
41168;DHT22;26906;45.658;9.272;2023-11-19T18:22:40;11.30;99.90
41168;DHT22;26906;45.658;9.272;2023-11-19T18:25:07;11.30;99.90
41168;DHT22;26906;45.658;9.272;2023-11-19T18:27:36;11.30;99.90
41168;DHT22;26906;45.658;9.272;2023-11-19T18:30:07;11.30;99.90
41168;DHT22;26906;45.658;9.272;2023-11-19T18:32:36;11.20;99.90
41168;DHT22;26906;45.658;9.272;2023-11-19T18:35:02;11.20;99.90
41168;DHT22;26906;45.658;9.272;2023-11-19T18:37:27;11.20;99.90
41168;DHT22;26906;45.658;9.272;2023-11-19T18:39:54;11.30;99.90
41168;DHT22;26906;45.658;9.272;2023-11-19T18:42:21;11.20;99.90
41168;DHT22;26906;45.658;9.272;2023-11-19T18:44:46;11.20;99.90
41168;DHT22;26906;45.658;9.272;2023-11-19T18:47:12;11.10;99.90
41168;DHT22;26906;45.658;9.272;2023-11-19T18:49:39;11.10;99.90
41168;DHT22;26906;45.658;9.272;2023-11-19T18:52:05;11.10;99.90
41168;DHT22;26906;45.658;9.272;2023-11-19T18:54:32;11.00;99.90
41168;DHT22;26906;45.658;9.272;2023-11-19T18:56:58;10.90;99.90
41168;DHT22;26906;45.658;9.272;2023-11-19T18:59:24;11.00;99.90
41168;DHT22;26906;45.658;9.272;2023-11-19T19:01:50;10.90;99.90
41168;DHT22;26906;45.658;9.272;2023-11-19T19:04:16;10.90;99.90
41168;DHT22;26906;45.658;9.272;2023-11-19T19:06:41;11.00;99.90
41168;DHT22;26906;45.658;9.272;2023-11-19T19:09:08;11.10;99.90
41168;DHT22;26906;45.658;9.272;2023-11-19T19:11:33;11.10;99.90
41168;DHT22;26906;45.658;9.272;2023-11-19T19:14:00;11.10;99.90
41168;DHT22;26906;45.658;9.272;2023-11-19T19:16:25;10.90;99.90
41168;DHT22;26906;45.658;9.272;2023-11-19T19:18:51;10.80;99.90
41168;DHT22;26906;45.658;9.272;2023-11-19T19:21:20;10.80;99.90
41168;DHT22;26906;45.658;9.272;2023-11-19T19:23:46;10.80;99.90
41168;DHT22;26906;45.658;9.272;2023-11-19T19:26:11;10.70;99.90
41168;DHT22;26906;45.658;9.272;2023-11-19T19:28:37;10.70;99.90
41168;DHT22;26906;45.658;9.272;2023-11-19T19:31:06;10.70;99.90
41168;DHT22;26906;45.658;9.272;2023-11-19T19:33:32;10.60;99.90
41168;DHT22;26906;45.658;9.272;2023-11-19T19:35:58;10.50;99.90
41168;DHT22;26906;45.658;9.272;2023-11-19T19:38:24;10.40;99.90
41168;DHT22;26906;45.658;9.272;2023-11-19T19:40:50;10.40;99.90
41168;DHT22;26906;45.658;9.272;2023-11-19T19:43:16;10.30;99.90
41168;DHT22;26906;45.658;9.272;2023-11-19T19:45:42;10.40;99.90
41168;DHT22;26906;45.658;9.272;2023-11-19T19:48:08;10.30;99.90
41168;DHT22;26906;45.658;9.272;2023-11-19T19:50:33;10.20;99.90
41168;DHT22;26906;45.658;9.272;2023-11-19T19:52:59;10.20;99.90
41168;DHT22;26906;45.658;9.272;2023-11-19T19:55:25;10.20;99.90
41168;DHT22;26906;45.658;9.272;2023-11-19T19:57:50;10.10;99.90
41168;DHT22;26906;45.658;9.272;2023-11-19T20:00:16;10.20;99.90
41168;DHT22;26906;45.658;9.272;2023-11-19T20:02:42;10.30;99.90
41168;DHT22;26906;45.658;9.272;2023-11-19T20:05:08;10.20;99.90
41168;DHT22;26906;45.658;9.272;2023-11-19T20:07:43;10.20;99.90
41168;DHT22;26906;45.658;9.272;2023-11-19T20:10:10;10.10;99.90
41168;DHT22;26906;45.658;9.272;2023-11-19T20:12:36;10.10;99.90
41168;DHT22;26906;45.658;9.272;2023-11-19T20:15:07;10.00;99.90
41168;DHT22;26906;45.658;9.272;2023-11-19T20:17:34;9.90;99.90
41168;DHT22;26906;45.658;9.272;2023-11-19T20:20:01;10.10;99.90
41168;DHT22;26906;45.658;9.272;2023-11-19T20:22:27;10.20;99.90
41168;DHT22;26906;45.658;9.272;2023-11-19T20:24:53;10.00;99.90
41168;DHT22;26906;45.658;9.272;2023-11-19T20:27:18;10.00;99.90
41168;DHT22;26906;45.658;9.272;2023-11-19T20:29:45;10.00;99.90
41168;DHT22;26906;45.658;9.272;2023-11-19T20:32:11;10.00;99.90
41168;DHT22;26906;45.658;9.272;2023-11-19T20:34:37;10.10;99.90
41168;DHT22;26906;45.658;9.272;2023-11-19T20:37:03;10.10;99.90
41168;DHT22;26906;45.658;9.272;2023-11-19T20:39:30;10.10;99.90
41168;DHT22;26906;45.658;9.272;2023-11-19T20:41:55;10.10;99.90
41168;DHT22;26906;45.658;9.272;2023-11-19T20:44:21;10.20;99.90
41168;DHT22;26906;45.658;9.272;2023-11-19T20:46:47;10.20;99.90
41168;DHT22;26906;45.658;9.272;2023-11-19T20:49:14;10.20;99.90
41168;DHT22;26906;45.658;9.272;2023-11-19T20:51:42;10.10;99.90
41168;DHT22;26906;45.658;9.272;2023-11-19T20:54:08;10.00;99.90
41168;DHT22;26906;45.658;9.272;2023-11-19T20:56:35;9.90;99.90
41168;DHT22;26906;45.658;9.272;2023-11-19T20:59:01;10.00;99.90
41168;DHT22;26906;45.658;9.272;2023-11-19T21:01:27;9.80;99.90
41168;DHT22;26906;45.658;9.272;2023-11-19T21:03:52;9.90;99.90
41168;DHT22;26906;45.658;9.272;2023-11-19T21:06:18;10.00;99.90
41168;DHT22;26906;45.658;9.272;2023-11-19T21:08:46;10.10;99.90
41168;DHT22;26906;45.658;9.272;2023-11-19T21:11:12;9.90;99.90
41168;DHT22;26906;45.658;9.272;2023-11-19T21:13:38;9.80;99.90
41168;DHT22;26906;45.658;9.272;2023-11-19T21:16:06;9.70;99.90
41168;DHT22;26906;45.658;9.272;2023-11-19T21:18:42;9.70;99.90
41168;DHT22;26906;45.658;9.272;2023-11-19T21:21:09;9.60;99.90
